Terminal Aerodrome Forecast
Issued by NWS

Home | Current Version | Previous Version | Text Only | Print | Product List | Glossary On
Versions: 1 2 3 4 5 6 7 8 9 10 11 12 13 14 15
000
FTUS42 KRAH 300528
TAFRWI
TAF
KRWI 300528Z 3006/3106 VRB05KT P6SM SCT050 BKN080
      TEMPO 3009/3012 1 1/2SM BR BKN003
     FM301400 17008KT P6SM BKN050 PROB30 3022/3024 6SM TS BKN050CB=

USA.gov is the U.S. government's official web portal to all federal, state and local government web resources and services.